Portada
METAR-TAF:

METAR-TAF

Aeroports :

Kiritimati, Kiribati

latitud: 01-59N, longitud: 157-29W, altitud: 3 m

Observació

L'informe es va fer fa 40 minuts, a les 15:00 UTC
Vent 6 kt del Est
Temperatura 26°C
Humitat 79%
Pressió 1011 hPa
Visibilitat 10 km o més
Escasses núvols a una alçada de 2000 ft

METAR: PLCH 251500Z 09006KT 9999 FEW020 26/22 Q1011

Hora: 05:40 (15:40 UTC)

Pronòstic

L'informe es va fer fa 4 hores i 36 minuts, a les 11:04 UTC
Pronòstic vàlid del 25 a les 12 UTC al 26 a les 12 UTC
Vent 6 kt del Est
Visibilitat 10 km o més
Núvols disperses a una alçada de 2000 ft
Cel ennuvolat a una alçada de 10000 ft

TAF: PLCH 251104Z 2512/2612 10006KT 9999 SCT020 BKN100

Observacions i pronòstics meteorològics de més de 4000 aeroports (METAR i TAF).

Les estacions disponibles són els punts grocs i vermells al mapa.

Posi el ratolí al punt desitjat per veure el nom de l'estació.

Feu clic per veure les observacions i els pronòstics meteorològics.

Per canviar el mapa: feu clic els botons verds amb una creu de color negre per apropar; al botó verd amb un guió per allunyar la imatge; o en les fletxes verdes per a mapes adjacents.


METAR-TAF: